Time;durP1;ratioP1;P1;durP2;ratioP2;P2;SDS_P1;SDS_P2;PMS_P1;PMS_P2;Temp;Humidity;BMP_temperature;BMP_pressure;BME280_temperature;BME280_humidity;BME280_pressure;Samples;Min_cycle;Max_cycle;Signal;HPM_P1;HPM_P2
2022/05/13 00:01:08;;;;;;;7.45;1.90;;;18.80;62.00;;;;;;5013739;28;20518;-64
2022/05/13 00:03:34;;;;;;;8.27;1.48;;;18.80;62.30;;;;;;5013448;28;20296;-65
2022/05/13 00:06:00;;;;;;;8.02;1.73;;;18.80;62.30;;;;;;5013208;28;20037;-65
2022/05/13 00:08:26;;;;;;;7.35;1.90;;;18.70;62.50;;;;;;5013521;28;20026;-61
2022/05/13 00:10:52;;;;;;;8.05;2.00;;;18.70;62.60;;;;;;5013201;28;20030;-65
2022/05/13 00:13:18;;;;;;;8.23;1.98;;;18.70;62.70;;;;;;5012239;28;20117;-65
2022/05/13 00:15:44;;;;;;;8.85;2.13;;;18.60;62.80;;;;;;5013184;28;20049;-64
2022/05/13 00:18:10;;;;;;;7.05;2.03;;;18.60;62.90;;;;;;5013425;28;20104;-65
2022/05/13 00:20:36;;;;;;;9.18;2.20;;;18.60;63.20;;;;;;5013195;28;20454;-66
2022/05/13 00:23:03;;;;;;;12.00;2.50;;;18.60;63.40;;;;;;5013296;28;20100;-64
2022/05/13 00:25:31;;;;;;;9.30;2.05;;;18.60;63.60;;;;;;5012893;28;20033;-65
2022/05/13 00:27:59;;;;;;;13.80;2.58;;;18.50;63.80;;;;;;5013215;28;20066;-64
2022/05/13 00:30:26;;;;;;;7.35;1.95;;;18.50;64.00;;;;;;5012954;28;20026;-65
2022/05/13 00:32:51;;;;;;;10.05;2.40;;;18.50;64.40;;;;;;5013327;28;20037;-65
2022/05/13 00:35:19;;;;;;;8.20;2.35;;;18.40;64.70;;;;;;5013116;28;20030;-64
2022/05/13 00:37:44;;;;;;;13.43;2.55;;;18.40;65.00;;;;;;5013159;28;20026;-64
2022/05/13 00:40:11;;;;;;;11.13;2.28;;;18.40;65.10;;;;;;5012725;28;20032;-65
2022/05/13 00:42:37;;;;;;;7.30;1.95;;;18.40;65.30;;;;;;5013058;28;20041;-65
2022/05/13 00:45:03;;;;;;;8.32;2.75;;;18.40;65.40;;;;;;5013113;28;20030;-65
2022/05/13 00:47:29;;;;;;;7.25;1.63;;;18.40;65.70;;;;;;5013101;28;20130;-65
2022/05/13 00:49:55;;;;;;;13.63;2.30;;;18.40;65.90;;;;;;5012945;28;20132;-65
2022/05/13 00:52:22;;;;;;;8.15;1.75;;;18.40;66.10;;;;;;5012973;28;20117;-65
2022/05/13 00:54:48;;;;;;;7.72;2.08;;;18.30;66.20;;;;;;5012364;28;20018;-65
2022/05/13 00:57:14;;;;;;;12.13;2.55;;;18.30;66.40;;;;;;5013199;28;20391;-66
2022/05/13 00:59:44;;;;;;;9.73;2.30;;;18.30;66.50;;;;;;5013043;28;20030;-65
2022/05/13 01:02:10;;;;;;;8.85;2.55;;;18.30;66.80;;;;;;5014254;28;20022;-65
2022/05/13 01:04:38;;;;;;;10.40;1.90;;;18.30;67.10;;;;;;5016681;28;20018;-65
2022/05/13 01:07:09;;;;;;;10.27;2.42;;;18.20;67.10;;;;;;5016395;28;20073;-65
2022/05/13 01:09:40;;;;;;;6.43;1.90;;;18.20;67.20;;;;;;5016259;28;20056;-65
2022/05/13 01:12:10;;;;;;;9.02;2.30;;;18.30;67.30;;;;;;5015308;28;20060;-65
2022/05/13 01:14:40;;;;;;;6.47;1.95;;;18.20;67.50;;;;;;5016539;28;20030;-65
2022/05/13 01:20:19;;;;;;;12.95;2.78;;;18.10;67.80;;;;;;5016555;28;20068;-64
2022/05/13 01:22:46;;;;;;;;;;;18.20;67.80;;;;;;5016685;28;20029;-64
2022/05/13 01:25:14;;;;;;;10.93;2.70;;;18.20;67.70;;;;;;5016186;28;19916;-66
2022/05/13 01:27:42;;;;;;;17.77;3.25;;;18.10;68.00;;;;;;5016088;28;20052;-65
2022/05/13 01:30:10;;;;;;;9.38;2.53;;;18.10;68.80;;;;;;5016299;28;20025;-65
2022/05/13 01:32:36;;;;;;;8.25;2.40;;;18.10;68.40;;;;;;5015829;28;20041;-64
2022/05/13 01:35:02;;;;;;;15.95;3.03;;;18.10;68.50;;;;;;5016185;28;20022;-64
2022/05/13 01:37:28;;;;;;;10.98;2.53;;;18.10;68.50;;;;;;5015628;28;20026;-65
2022/05/13 01:39:53;;;;;;;9.00;2.90;;;18.10;68.60;;;;;;5015828;28;20113;-64
2022/05/13 01:42:19;;;;;;;12.85;2.72;;;18.10;68.70;;;;;;5015987;28;20072;-65
2022/05/13 01:44:44;;;;;;;11.25;2.80;;;18.00;68.90;;;;;;5016041;28;20050;-65
2022/05/13 01:47:10;;;;;;;10.85;2.92;;;18.00;69.00;;;;;;5015903;28;20529;-65
2022/05/13 01:49:35;;;;;;;14.65;3.50;;;18.00;69.20;;;;;;5016026;28;20057;-65
2022/05/13 01:52:01;;;;;;;10.77;3.15;;;18.00;69.40;;;;;;5015294;28;20088;-65
2022/05/13 01:54:26;;;;;;;11.93;2.60;;;18.00;69.40;;;;;;5015787;28;20026;-64
2022/05/13 01:56:52;;;;;;;15.00;3.28;;;18.00;69.50;;;;;;5015421;28;20026;-65
2022/05/13 01:59:18;;;;;;;8.05;2.92;;;18.00;69.60;;;;;;5015798;28;20430;-64
2022/05/13 02:01:44;;;;;;;12.13;2.97;;;17.90;69.60;;;;;;5015599;28;20030;-64
2022/05/13 02:04:10;;;;;;;9.65;2.42;;;17.90;69.70;;;;;;5015659;28;20029;-64
2022/05/13 02:06:36;;;;;;;8.88;2.53;;;17.90;69.90;;;;;;5015108;28;20045;-61
2022/05/13 02:09:02;;;;;;;14.85;3.85;;;17.80;69.90;;;;;;5015439;28;20026;-64
2022/05/13 02:11:30;;;;;;;10.57;2.90;;;17.90;70.10;;;;;;5015618;28;20105;-64
2022/05/13 02:13:56;;;;;;;10.38;2.42;;;17.80;70.20;;;;;;5015373;28;20048;-64
2022/05/13 02:16:22;;;;;;;12.40;2.88;;;17.80;70.40;;;;;;5015353;28;20116;-65
2022/05/13 02:18:48;;;;;;;9.27;2.80;;;17.70;70.40;;;;;;5015269;28;20132;-65
2022/05/13 02:21:14;;;;;;;10.15;3.22;;;17.70;70.50;;;;;;5015062;28;20030;-65
2022/05/13 02:23:40;;;;;;;13.65;3.10;;;17.80;70.60;;;;;;5015067;28;20033;-65
2022/05/13 02:26:09;;;;;;;10.45;2.88;;;17.70;70.70;;;;;;5014928;28;20030;-65
2022/05/13 02:28:35;;;;;;;9.48;3.13;;;17.70;70.80;;;;;;5014936;28;20034;-64
2022/05/13 02:31:01;;;;;;;15.05;3.50;;;17.60;71.00;;;;;;5015116;28;20072;-65
2022/05/13 02:33:29;;;;;;;11.55;2.88;;;17.60;70.90;;;;;;5015130;28;20030;-66
2022/05/13 02:35:55;;;;;;;12.73;3.22;;;17.60;71.10;;;;;;5013075;28;20392;-66
2022/05/13 02:38:21;;;;;;;10.18;2.75;;;17.50;71.30;;;;;;5014936;28;20531;-64
2022/05/13 02:43:31;;;;;;;11.77;2.83;;;17.50;71.50;;;;;;5015175;28;20045;-65
2022/05/13 02:45:58;;;;;;;14.63;3.17;;;17.50;71.50;;;;;;5013358;28;20423;-65
2022/05/13 02:48:24;;;;;;;9.00;2.30;;;17.50;71.40;;;;;;5014673;28;20030;-64
2022/05/13 02:50:50;;;;;;;11.18;2.63;;;17.50;71.50;;;;;;5014584;28;20101;-65
2022/05/13 02:53:15;;;;;;;9.98;2.90;;;17.50;71.50;;;;;;5014512;28;20120;-65
2022/05/13 02:55:41;;;;;;;13.10;2.60;;;17.40;71.60;;;;;;5014503;28;20026;-64
2022/05/13 02:58:07;;;;;;;9.93;2.05;;;17.40;71.70;;;;;;5014471;28;20026;-65
2022/05/13 03:00:33;;;;;;;7.35;1.77;;;17.30;71.90;;;;;;5014670;28;20022;-65
2022/05/13 03:02:59;;;;;;;10.88;2.72;;;17.30;71.80;;;;;;5014261;28;20054;-65
2022/05/13 03:05:25;;;;;;;10.15;2.65;;;17.30;71.90;;;;;;5014285;28;20053;-65
2022/05/13 03:07:50;;;;;;;9.00;3.13;;;17.30;71.90;;;;;;5014252;28;20042;-65
2022/05/13 03:10:17;;;;;;;12.82;2.70;;;17.30;71.90;;;;;;5014430;28;20022;-61
2022/05/13 03:12:43;;;;;;;10.88;2.40;;;17.30;72.20;;;;;;5014310;28;20372;-65
2022/05/13 03:15:10;;;;;;;8.50;2.17;;;17.30;72.20;;;;;;5014270;28;20494;-60
2022/05/13 03:17:37;;;;;;;9.02;2.55;;;17.30;72.40;;;;;;5014164;28;20033;-65
2022/05/13 03:20:06;;;;;;;8.80;2.40;;;17.30;72.30;;;;;;5013654;28;20483;-60
2022/05/13 03:22:32;;;;;;;13.30;3.13;;;17.30;72.40;;;;;;5014122;28;20141;-64
2022/05/13 03:24:59;;;;;;;7.88;2.30;;;16.70;74.20;;;;;;5006692;28;20026;-64
2022/05/13 03:27:25;;;;;;;9.25;2.60;;;15.90;77.50;;;;;;4995142;28;20049;-64
2022/05/13 03:29:50;;;;;;;11.20;3.05;;;15.30;80.40;;;;;;4994044;28;20019;-60
2022/05/13 03:32:16;;;;;;;9.27;2.40;;;15.20;81.20;;;;;;4993872;28;20384;-61
2022/05/13 03:34:41;;;;;;;12.27;2.53;;;15.00;82.20;;;;;;4993985;28;20058;-61
2022/05/13 03:37:07;;;;;;;11.43;2.78;;;14.90;83.20;;;;;;4994039;28;20101;-64
2022/05/13 03:39:32;;;;;;;11.15;2.17;;;14.90;83.40;;;;;;4994044;28;20407;-63
2022/05/13 03:41:58;;;;;;;16.58;3.45;;;14.50;85.20;;;;;;4994348;28;20030;-59
2022/05/13 03:44:23;;;;;;;17.23;3.47;;;14.50;85.70;;;;;;4994319;28;20030;-59
2022/05/13 03:46:49;;;;;;;12.85;3.33;;;14.60;85.70;;;;;;4993855;28;20042;-61
2022/05/13 03:49:14;;;;;;;12.45;3.20;;;14.50;85.80;;;;;;4993978;28;20019;-64
2022/05/13 03:51:41;;;;;;;13.07;2.97;;;14.30;86.90;;;;;;4993896;28;20035;-60
2022/05/13 03:54:06;;;;;;;12.10;3.13;;;14.20;87.50;;;;;;4993973;28;20034;-60
2022/05/13 03:56:32;;;;;;;12.05;2.78;;;14.10;88.60;;;;;;4994129;28;20030;-60
2022/05/13 03:58:57;;;;;;;13.93;3.53;;;14.20;88.10;;;;;;4993819;28;20396;-61
2022/05/13 04:01:23;;;;;;;15.90;2.97;;;14.10;88.90;;;;;;4992488;28;20023;-59
2022/05/13 04:03:49;;;;;;;12.95;2.90;;;14.10;89.30;;;;;;4993829;28;20030;-61
2022/05/13 04:09:01;;;;;;;13.13;3.13;;;14.10;89.80;;;;;;4994118;28;20080;-59
2022/05/13 04:11:30;;;;;;;11.73;2.75;;;14.20;89.50;;;;;;4993729;28;20097;-62
2022/05/13 04:16:50;;;;;;;11.57;2.78;;;14.10;90.10;;;;;;4992616;28;20033;-59
2022/05/13 04:19:16;;;;;;;15.32;3.55;;;14.10;90.10;;;;;;4993674;28;20019;-62
2022/05/13 04:21:42;;;;;;;14.18;3.67;;;14.10;90.20;;;;;;4993716;28;20030;-64
2022/05/13 04:24:11;;;;;;;11.27;3.28;;;14.10;90.30;;;;;;4993720;28;20428;-64
2022/05/13 04:26:37;;;;;;;21.80;5.65;;;14.10;90.60;;;;;;4993397;28;20134;-60
2022/05/13 04:29:03;;;;;;;11.80;3.63;;;13.90;91.00;;;;;;4993768;28;20026;-63
2022/05/13 04:31:33;;;;;;;11.70;3.65;;;13.80;91.30;;;;;;4993194;28;20121;-65
2022/05/13 04:33:59;;;;;;;12.95;3.33;;;13.70;91.60;;;;;;4993895;28;20050;-61
2022/05/13 04:36:26;;;;;;;14.63;3.75;;;13.80;91.60;;;;;;4993807;28;20029;-65
2022/05/13 04:38:52;;;;;;;16.50;3.22;;;13.80;91.80;;;;;;4997684;28;20027;-64
2022/05/13 04:44:04;;;;;;;13.65;3.53;;;13.80;91.80;;;;;;4997652;28;20061;-61
2022/05/13 04:46:30;;;;;;;11.15;3.20;;;13.80;91.90;;;;;;4996810;28;20058;-64
2022/05/13 04:48:56;;;;;;;14.93;4.43;;;13.90;92.00;;;;;;4997428;28;20026;-64
2022/05/13 04:51:22;;;;;;;13.65;3.33;;;13.90;92.00;;;;;;4997197;28;20538;-64
2022/05/13 04:53:50;;;;;;;13.93;3.60;;;13.90;92.00;;;;;;4997090;28;20519;-60
2022/05/13 04:56:17;;;;;;;14.23;4.43;;;14.10;91.80;;;;;;4996872;28;20022;-59
2022/05/13 04:58:42;;;;;;;14.80;3.55;;;14.10;92.00;;;;;;4997363;28;20035;-62
2022/05/13 05:01:09;;;;;;;17.75;3.78;;;14.10;92.00;;;;;;5001806;28;20037;-62
2022/05/13 05:03:36;;;;;;;16.63;4.80;;;14.00;92.20;;;;;;5015926;28;20024;-63
2022/05/13 05:06:03;;;;;;;14.43;4.57;;;14.00;92.30;;;;;;5016429;28;20460;-60
2022/05/13 05:08:29;;;;;;;18.85;3.92;;;14.10;92.30;;;;;;5016598;28;20033;-64
2022/05/13 05:10:55;;;;;;;16.20;4.05;;;14.10;92.40;;;;;;5016691;28;20022;-61
2022/05/13 05:13:27;;;;;;;15.82;4.45;;;14.00;92.50;;;;;;5016313;28;20030;-63
2022/05/13 05:15:54;;;;;;;15.88;4.63;;;14.20;92.30;;;;;;5016108;28;20105;-60
2022/05/13 05:18:20;;;;;;;15.38;3.72;;;14.10;92.70;;;;;;5016469;28;20379;-61
2022/05/13 05:20:46;;;;;;;20.08;5.03;;;14.10;92.80;;;;;;5016342;28;20029;-65
2022/05/13 05:23:27;;;;;;;15.02;5.18;;;14.20;92.80;;;;;;5016392;28;20022;-64
2022/05/13 05:25:54;;;;;;;14.85;4.50;;;14.20;92.70;;;;;;5016135;28;20033;-64
2022/05/13 05:28:19;;;;;;;12.63;3.92;;;14.40;92.50;;;;;;5015891;28;20041;-60
2022/05/13 05:30:45;;;;;;;19.55;4.82;;;14.30;92.60;;;;;;5015425;28;20494;-57
2022/05/13 05:33:11;;;;;;;17.05;5.82;;;14.30;92.70;;;;;;5005288;28;20026;-60
2022/05/13 05:35:38;;;;;;;16.08;5.18;;;14.20;92.90;;;;;;5014842;28;20025;-61
2022/05/13 05:38:04;;;;;;;17.27;5.45;;;14.30;92.80;;;;;;5013824;28;20077;-61
2022/05/13 05:40:30;;;;;;;19.85;5.47;;;14.40;92.80;;;;;;5012949;28;20025;-64
2022/05/13 05:42:56;;;;;;;16.45;5.30;;;14.40;92.90;;;;;;5013037;28;20098;-60
2022/05/13 05:45:23;;;;;;;16.58;5.35;;;14.30;93.30;;;;;;5012876;28;20030;-59
2022/05/13 05:47:49;;;;;;;15.38;5.40;;;14.30;93.20;;;;;;5015540;28;20048;-60
2022/05/13 05:50:18;;;;;;;20.83;6.28;;;14.50;92.80;;;;;;5014560;28;20080;-65
2022/05/13 05:52:44;;;;;;;17.95;6.05;;;14.90;91.90;;;;;;5015185;28;20042;-59
2022/05/13 05:57:58;;;;;;;12.95;5.90;;;15.60;90.20;;;;;;5010921;28;20399;-64
2022/05/13 06:00:24;;;;;;;13.57;4.00;;;15.90;89.10;;;;;;5012237;28;20058;-63
2022/05/13 06:02:49;;;;;;;16.52;5.82;;;16.10;87.90;;;;;;5009985;28;20101;-61
2022/05/13 06:05:15;;;;;;;19.08;5.70;;;16.20;87.90;;;;;;5008320;28;20114;-63
2022/05/13 06:07:41;;;;;;;16.73;5.30;;;16.30;87.60;;;;;;5005145;28;20046;-59
2022/05/13 06:10:07;;;;;;;13.00;5.22;;;16.40;87.20;;;;;;5009733;28;20028;-60
2022/05/13 06:12:32;;;;;;;16.73;4.72;;;16.40;86.70;;;;;;5009435;28;20064;-62
2022/05/13 06:14:58;;;;;;;16.85;5.68;;;16.50;86.20;;;;;;5012510;28;20060;-64
2022/05/13 06:17:24;;;;;;;17.33;4.45;;;16.60;86.30;;;;;;5011696;28;20117;-63
2022/05/13 06:19:49;;;;;;;15.55;4.10;;;16.60;85.80;;;;;;5008661;28;20037;-60
2022/05/13 06:22:15;;;;;;;15.43;5.25;;;16.70;85.80;;;;;;5014478;28;20086;-63
2022/05/13 06:24:41;;;;;;;17.15;4.90;;;16.70;85.60;;;;;;5029658;28;20025;-59
2022/05/13 06:27:07;;;;;;;22.50;5.88;;;16.80;85.50;;;;;;5007960;28;20038;-65
2022/05/13 06:29:35;;;;;;;11.73;5.05;;;16.80;85.20;;;;;;5014372;28;20029;-64
2022/05/13 06:32:00;;;;;;;19.13;5.03;;;16.80;85.20;;;;;;5011194;28;20456;-69
2022/05/13 06:34:26;;;;;;;17.75;3.88;;;16.90;84.90;;;;;;5010511;28;20106;-70
2022/05/13 06:36:52;;;;;;;15.27;4.05;;;16.90;84.80;;;;;;5011422;28;20383;-65
2022/05/13 06:39:18;;;;;;;23.52;3.67;;;16.90;84.70;;;;;;5013890;28;20041;-72
2022/05/13 06:41:44;;;;;;;30.08;5.10;;;17.00;84.60;;;;;;5014705;28;20582;-64
2022/05/13 06:44:10;;;;;;;31.67;6.22;;;17.00;84.60;;;;;;5012294;28;20032;-69
2022/05/13 06:46:39;;;;;;;26.80;5.22;;;17.10;84.60;;;;;;5012053;28;20383;-70
2022/05/13 06:49:11;;;;;;;17.42;4.53;;;17.10;84.70;;;;;;5011089;28;20032;-63
2022/05/13 06:51:37;;;;;;;26.10;4.15;;;17.20;84.80;;;;;;4995367;28;20050;-70
2022/05/13 06:54:06;;;;;;;26.95;4.30;;;17.20;84.40;;;;;;5012613;28;20030;-68
2022/05/13 06:56:33;;;;;;;24.25;3.33;;;17.30;84.20;;;;;;4999193;28;20486;-70
2022/05/13 06:58:59;;;;;;;12.93;3.85;;;17.30;84.20;;;;;;5013249;28;20038;-71
2022/05/13 07:01:25;;;;;;;19.80;3.50;;;17.40;83.90;;;;;;5013574;28;20026;-72
2022/05/13 07:03:50;;;;;;;17.67;3.30;;;17.40;83.70;;;;;;5012639;28;20080;-71
2022/05/13 07:06:16;;;;;;;14.20;2.88;;;17.40;83.60;;;;;;5012744;28;20643;-71
2022/05/13 07:08:42;;;;;;;15.30;2.65;;;17.50;83.40;;;;;;5012126;28;20037;-69
2022/05/13 07:11:07;;;;;;;19.50;3.13;;;17.50;83.40;;;;;;5015860;28;20109;-72
2022/05/13 07:13:34;;;;;;;17.85;4.15;;;17.50;83.00;;;;;;5013977;28;20032;-72
2022/05/13 07:16:00;;;;;;;12.43;2.58;;;17.50;83.00;;;;;;5027691;28;20025;-70
2022/05/13 07:18:26;;;;;;;17.55;3.35;;;17.60;82.80;;;;;;5019067;28;20013;-70
2022/05/13 07:20:51;;;;;;;16.55;2.90;;;17.60;82.80;;;;;;5019488;28;20111;-70
2022/05/13 07:23:17;;;;;;;10.55;2.40;;;17.70;82.90;;;;;;5014765;28;20087;-67
2022/05/13 07:25:43;;;;;;;13.07;3.22;;;17.70;82.50;;;;;;5017892;28;20034;-70
2022/05/13 07:28:08;;;;;;;16.05;2.40;;;17.70;82.40;;;;;;5010335;28;20045;-63
2022/05/13 07:30:34;;;;;;;9.13;2.90;;;17.80;83.10;;;;;;5000109;28;20026;-69
2022/05/13 07:32:59;;;;;;;13.70;2.55;;;17.90;88.80;;;;;;5022063;28;20163;-69
2022/05/13 07:35:25;;;;;;;11.82;2.78;;;17.90;90.30;;;;;;5018287;28;20026;-68
2022/05/13 07:37:51;;;;;;;12.07;2.72;;;17.90;90.70;;;;;;5010635;28;20034;-69
2022/05/13 07:43:02;;;;;;;11.65;2.95;;;18.00;90.80;;;;;;5015261;28;20036;-70
2022/05/13 07:45:27;;;;;;;10.23;3.28;;;18.00;93.20;;;;;;5018259;28;20059;-69
2022/05/13 07:47:53;;;;;;;11.55;3.25;;;18.10;92.70;;;;;;5027719;28;20037;-70
2022/05/13 07:50:19;;;;;;;11.45;3.53;;;18.10;94.30;;;;;;5017655;28;20038;-68
2022/05/13 07:52:45;;;;;;;20.13;3.47;;;18.20;94.50;;;;;;5022694;28;20509;-69
2022/05/13 07:55:12;;;;;;;12.68;2.92;;;18.20;95.10;;;;;;5014700;28;20472;-70
2022/05/13 07:57:42;;;;;;;9.82;2.80;;;18.20;94.80;;;;;;5023001;28;20048;-70
2022/05/13 08:00:28;;;;;;;12.85;2.60;;;18.20;95.30;;;;;;5000152;28;20057;-71
2022/05/13 08:02:57;;;;;;;9.20;2.60;;;18.30;95.60;;;;;;5024669;28;20346;-70
2022/05/13 08:05:26;;;;;;;15.57;3.13;;;18.40;95.20;;;;;;5014253;28;20022;-71
2022/05/13 08:08:05;;;;;;;12.93;3.33;;;18.30;93.40;;;;;;5017438;28;20590;-70
2022/05/13 08:10:31;;;;;;;10.70;2.95;;;18.40;91.40;;;;;;5011591;28;20026;-69
2022/05/13 08:12:56;;;;;;;9.82;2.88;;;18.40;90.70;;;;;;5016706;28;20381;-67
2022/05/13 08:15:22;;;;;;;13.57;3.38;;;18.40;90.10;;;;;;5026598;28;20029;-69
2022/05/13 08:17:48;;;;;;;11.73;3.25;;;18.50;90.00;;;;;;5004034;28;20515;-69
2022/05/13 08:20:14;;;;;;;10.75;2.53;;;18.50;89.50;;;;;;5016751;28;20013;-68
2022/05/13 08:22:40;;;;;;;11.00;2.28;;;18.50;88.40;;;;;;5022651;28;20033;-69
2022/05/13 08:25:07;;;;;;;9.05;2.83;;;18.50;87.60;;;;;;5008876;28;20113;-70
2022/05/13 08:27:33;;;;;;;9.13;2.83;;;18.60;86.80;;;;;;5027676;28;20034;-69
2022/05/13 08:30:01;;;;;;;7.55;2.40;;;18.60;85.00;;;;;;5015217;28;20034;-70
2022/05/13 08:32:29;;;;;;;12.60;2.45;;;18.60;83.40;;;;;;5025641;28;20025;-69
2022/05/13 08:34:55;;;;;;;13.73;2.83;;;18.70;82.60;;;;;;5013676;28;20026;-69
2022/05/13 08:37:21;;;;;;;9.35;2.92;;;18.70;81.60;;;;;;5012825;28;20025;-70
2022/05/13 08:39:46;;;;;;;10.65;2.53;;;18.70;81.30;;;;;;5025609;28;20543;-70
2022/05/13 08:42:36;;;;;;;7.93;2.05;;;18.80;80.70;;;;;;5024925;28;20540;-69
2022/05/13 08:45:03;;;;;;;9.65;2.67;;;18.80;80.50;;;;;;5007913;28;20026;-69
2022/05/13 08:47:54;;;;;;;12.68;3.13;;;18.80;79.30;;;;;;5026895;28;20419;-70
2022/05/13 08:50:32;;;;;;;10.38;2.90;;;18.80;78.80;;;;;;5005905;28;20018;-59
2022/05/13 08:53:19;;;;;;;16.70;3.20;;;18.90;78.00;;;;;;5020811;28;20032;-61
2022/05/13 08:55:49;;;;;;;18.90;3.72;;;18.90;76.80;;;;;;5012429;28;20047;-60
2022/05/13 08:58:30;;;;;;;17.30;2.85;;;18.90;76.10;;;;;;5021503;28;20079;-62
2022/05/13 09:00:58;;;;;;;7.40;2.35;;;18.90;75.90;;;;;;5004638;28;20495;-62
2022/05/13 09:03:48;;;;;;;14.73;2.53;;;18.90;75.70;;;;;;5003956;28;20460;-62
2022/05/13 09:06:26;;;;;;;12.10;2.55;;;19.00;75.60;;;;;;4997422;28;20541;-62
2022/05/13 09:08:53;;;;;;;6.38;1.90;;;19.00;75.50;;;;;;5024723;28;20368;-59
2022/05/13 09:11:27;;;;;;;8.70;2.05;;;19.00;75.00;;;;;;5017136;28;20104;-58
2022/05/13 09:14:17;;;;;;;9.82;1.92;;;19.00;74.60;;;;;;5013964;28;20044;-59
2022/05/13 09:17:12;;;;;;;6.25;1.77;;;19.00;73.70;;;;;;5027004;28;20416;-59
2022/05/13 09:19:49;;;;;;;7.38;1.83;;;19.10;73.70;;;;;;5016515;28;20403;-59
2022/05/13 09:22:15;;;;;;;10.95;2.28;;;19.10;73.50;;;;;;5014668;28;20025;-60
2022/05/13 09:24:41;;;;;;;8.75;1.77;;;19.20;73.10;;;;;;5015645;28;20049;-63
2022/05/13 09:27:06;;;;;;;8.55;2.15;;;19.10;73.20;;;;;;5015449;28;20038;-63
2022/05/13 09:29:45;;;;;;;5.15;1.70;;;19.20;73.00;;;;;;5018454;28;20061;-62
2022/05/13 09:32:30;;;;;;;9.52;2.10;;;19.20;72.80;;;;;;5005225;28;20411;-62
2022/05/13 09:35:21;;;;;;;7.35;1.90;;;19.20;72.60;;;;;;5012197;28;20091;-61
2022/05/13 09:37:46;;;;;;;6.25;1.75;;;19.20;72.50;;;;;;5015102;28;20038;-62
2022/05/13 09:40:18;;;;;;;6.07;1.75;;;19.30;72.20;;;;;;5011936;28;20400;-59
2022/05/13 09:42:49;;;;;;;6.78;1.65;;;19.30;72.30;;;;;;5030907;28;20026;-60
2022/05/13 09:45:25;;;;;;;8.18;1.85;;;19.30;72.00;;;;;;5031963;28;20395;-59
2022/05/13 09:48:18;;;;;;;7.40;1.50;;;19.40;72.00;;;;;;5019752;28;20037;-58
2022/05/13 09:50:51;;;;;;;;;;;19.40;71.70;;;;;;5021309;28;20518;-60
2022/05/13 09:53:23;;;;;;;5.85;1.50;;;19.40;71.80;;;;;;5028228;28;19905;-61
2022/05/13 09:55:57;;;;;;;4.95;1.50;;;19.40;71.50;;;;;;5015977;28;20025;-58
2022/05/13 09:58:29;;;;;;;6.30;2.05;;;19.40;71.40;;;;;;5028146;28;20034;-59
2022/05/13 10:01:06;;;;;;;6.60;1.58;;;19.50;71.10;;;;;;5024707;28;20022;-59
2022/05/13 10:03:38;;;;;;;7.30;1.90;;;19.50;70.90;;;;;;5017879;28;20025;-61
2022/05/13 10:06:17;;;;;;;5.18;1.52;;;19.50;70.80;;;;;;5019464;28;20020;-61
2022/05/13 10:14:38;;;;;;;3.92;1.60;;;19.60;70.30;;;;;;5027292;28;20438;-59
2022/05/13 10:17:25;;;;;;;7.85;1.60;;;19.60;70.20;;;;;;5020748;28;20066;-59
2022/05/13 10:20:10;;;;;;;6.32;1.60;;;19.70;70.10;;;;;;5009291;28;20057;-60
2022/05/13 10:22:43;;;;;;;10.32;2.45;;;19.70;69.80;;;;;;5025347;28;20029;-60
2022/05/13 10:25:15;;;;;;;3.88;1.85;;;19.70;69.70;;;;;;5018289;28;20025;-59
2022/05/13 10:27:48;;;;;;;7.05;2.10;;;19.70;69.70;;;;;;5012382;28;20499;-59
2022/05/13 10:30:41;;;;;;;4.45;1.58;;;19.70;69.70;;;;;;5012598;28;20453;-59
2022/05/13 10:33:29;;;;;;;6.93;2.58;;;19.80;69.50;;;;;;5013438;28;20030;-59
2022/05/13 10:36:07;;;;;;;6.32;2.08;;;19.80;69.50;;;;;;5008927;28;20041;-59
2022/05/13 10:38:56;;;;;;;5.05;1.95;;;19.80;69.40;;;;;;5010997;28;20117;-58
2022/05/13 10:41:33;;;;;;;7.72;2.58;;;19.80;69.20;;;;;;5008777;28;20080;-59
2022/05/13 10:44:08;;;;;;;5.53;1.77;;;19.80;69.20;;;;;;5013541;28;20073;-59
2022/05/13 10:46:56;;;;;;;5.35;1.80;;;19.80;69.00;;;;;;5012463;28;20383;-59
2022/05/13 10:49:31;;;;;;;6.00;2.10;;;19.80;69.20;;;;;;5013439;28;20050;-57
2022/05/13 10:52:02;;;;;;;9.65;2.47;;;19.80;68.90;;;;;;5014060;28;20022;-59
2022/05/13 10:54:56;;;;;;;5.40;2.67;;;19.90;69.00;;;;;;5011353;28;20081;-59
2022/05/13 10:57:34;;;;;;;7.90;2.47;;;19.90;68.80;;;;;;4994725;28;20037;-59
2022/05/13 11:00:12;;;;;;;5.88;2.13;;;19.90;68.70;;;;;;5013648;28;20116;-62
2022/05/13 11:03:13;;;;;;;6.38;2.17;;;20.00;68.60;;;;;;5000163;28;20025;-62
2022/05/13 11:05:38;;;;;;;6.18;1.70;;;20.00;68.60;;;;;;4994493;28;20061;-62
2022/05/13 11:08:30;;;;;;;8.43;1.90;;;19.90;68.40;;;;;;4998393;28;20073;-62
2022/05/13 11:11:13;;;;;;;4.80;1.90;;;20.00;68.20;;;;;;5012707;28;20057;-63
2022/05/13 11:13:44;;;;;;;;;;;20.00;67.90;;;;;;4994751;28;20379;-62
2022/05/13 11:16:29;;;;;;;5.63;1.55;;;20.00;68.00;;;;;;5002198;28;19925;-61
2022/05/13 11:19:24;;;;;;;7.38;1.92;;;20.00;67.70;;;;;;5002790;28;20035;-62
2022/05/13 11:22:28;;;;;;;7.13;1.73;;;20.10;68.00;;;;;;5004301;28;20029;-62
2022/05/13 11:25:57;;;;;;;6.28;2.28;;;20.10;67.90;;;;;;5013683;28;20018;-62
2022/05/13 11:28:49;;;;;;;9.50;2.55;;;20.10;67.90;;;;;;4997758;28;20039;-59
2022/05/13 11:31:36;;;;;;;7.57;1.90;;;20.10;67.80;;;;;;4993843;28;20058;-62
2022/05/13 11:34:38;;;;;;;10.80;1.88;;;20.10;67.70;;;;;;4995271;28;20054;-61
2022/05/13 11:37:07;;;;;;;5.20;1.98;;;20.20;68.00;;;;;;5012991;28;20116;-62
2022/05/13 11:39:48;;;;;;;6.75;2.45;;;20.10;67.60;;;;;;5010972;28;20032;-62
2022/05/13 11:42:17;;;;;;;7.95;1.63;;;20.20;67.70;;;;;;5013648;28;20049;-59
2022/05/13 11:45:15;;;;;;;10.73;2.10;;;20.30;67.80;;;;;;5008804;28;20057;-60
2022/05/13 11:48:09;;;;;;;7.25;1.67;;;20.20;68.10;;;;;;5005524;28;20038;-59
2022/05/13 11:50:35;;;;;;;6.32;1.38;;;20.20;68.00;;;;;;5002530;28;20034;-62
2022/05/13 11:53:00;;;;;;;6.43;1.35;;;20.30;67.90;;;;;;5012298;28;20014;-62
2022/05/13 11:55:29;;;;;;;6.00;1.27;;;20.30;67.90;;;;;;5006717;28;20022;-62
2022/05/13 11:57:55;;;;;;;11.10;1.70;;;20.30;67.90;;;;;;5000429;28;20041;-62
2022/05/13 12:00:36;;;;;;;6.10;1.42;;;20.30;67.90;;;;;;5012589;28;20030;-60
2022/05/13 12:03:16;;;;;;;8.63;1.65;;;20.40;67.90;;;;;;5014954;28;20116;-60
2022/05/13 12:05:50;;;;;;;7.55;1.17;;;20.40;67.50;;;;;;5002426;28;20108;-62
2022/05/13 12:08:21;;;;;;;5.70;1.33;;;20.40;67.00;;;;;;5007615;28;20080;-62
2022/05/13 12:11:02;;;;;;;7.18;1.48;;;20.40;66.50;;;;;;5000819;28;20029;-62
2022/05/13 12:14:27;;;;;;;6.18;1.50;;;20.40;66.60;;;;;;5002631;28;20037;-60
2022/05/13 12:17:25;;;;;;;8.15;1.25;;;20.40;66.70;;;;;;5001507;28;20125;-62
2022/05/13 12:20:21;;;;;;;6.97;1.10;;;20.50;66.50;;;;;;5007372;28;20041;-62
2022/05/13 12:23:03;;;;;;;7.65;1.38;;;20.50;66.30;;;;;;5005233;28;20400;-62
2022/05/13 12:25:29;;;;;;;;;;;20.50;66.10;;;;;;5016055;28;20460;-63
2022/05/13 12:28:04;;;;;;;6.40;1.45;;;20.50;66.00;;;;;;5013893;28;19926;-63
2022/05/13 12:30:40;;;;;;;5.88;1.48;;;20.50;65.90;;;;;;5000978;28;20018;-62
2022/05/13 12:33:33;;;;;;;5.45;1.30;;;20.50;66.00;;;;;;5010793;28;20040;-63
2022/05/13 12:39:22;;;;;;;5.30;1.08;;;20.60;65.30;;;;;;5013947;28;20096;-59
2022/05/13 12:42:10;;;;;;;4.32;0.90;;;20.70;65.20;;;;;;4991551;28;20033;-63
2022/05/13 12:44:58;;;;;;;5.88;1.08;;;20.70;65.40;;;;;;5010704;28;20034;-62
2022/05/13 12:47:29;;;;;;;5.60;0.98;;;20.70;65.20;;;;;;5005290;28;20034;-63
2022/05/13 12:50:18;;;;;;;8.07;1.45;;;20.70;65.10;;;;;;5013365;28;20096;-63
2022/05/13 12:52:44;;;;;;;5.50;0.88;;;20.70;65.00;;;;;;5012312;28;20026;-62
2022/05/13 12:55:20;;;;;;;4.40;0.98;;;20.80;64.70;;;;;;5003070;28;20022;-62
2022/05/13 12:57:51;;;;;;;6.63;0.80;;;20.80;64.70;;;;;;5012657;28;20441;-62
2022/05/13 13:00:19;;;;;;;3.85;0.77;;;20.90;64.60;;;;;;5019869;28;20014;-63
2022/05/13 13:02:51;;;;;;;8.20;1.15;;;20.80;64.60;;;;;;5021707;28;20036;-60
2022/05/13 13:05:24;;;;;;;;;;;20.80;64.50;;;;;;5004817;28;20452;-60
2022/05/13 13:07:54;;;;;;;7.15;1.20;;;20.80;65.00;;;;;;5012305;28;19918;-63
2022/05/13 13:10:21;;;;;;;3.67;1.13;;;20.80;64.60;;;;;;5014092;28;20518;-63
2022/05/13 13:13:10;;;;;;;6.60;1.40;;;20.90;64.80;;;;;;5014966;28;20060;-60
2022/05/13 13:15:41;;;;;;;5.35;1.10;;;20.90;64.90;;;;;;4994791;28;20098;-63
2022/05/13 13:18:10;;;;;;;8.45;1.48;;;20.90;64.80;;;;;;5002322;28;20062;-61
2022/05/13 13:20:55;;;;;;;5.45;1.15;;;20.90;64.80;;;;;;5013293;28;20030;-63
2022/05/13 13:23:21;;;;;;;5.75;1.02;;;21.00;64.80;;;;;;5014118;28;20030;-60
2022/05/13 13:25:51;;;;;;;5.65;1.27;;;20.90;64.60;;;;;;5017282;28;20029;-60
2022/05/13 13:28:22;;;;;;;5.63;1.02;;;21.00;64.50;;;;;;5013499;28;20042;-58
2022/05/13 13:30:57;;;;;;;7.25;1.33;;;21.00;64.60;;;;;;5015562;28;20030;-61